sensor_id;sensor_type;location;lat;lon;timestamp;P1;durP1;ratioP1;P2;durP2;ratioP2
819;SDS011;392;48.838;2.322;2023-03-14T00:01:13;3.73;;;1.47;;
819;SDS011;392;48.838;2.322;2023-03-14T00:03:43;4.23;;;2.00;;
819;SDS011;392;48.838;2.322;2023-03-14T00:06:12;3.83;;;1.50;;
819;SDS011;392;48.838;2.322;2023-03-14T00:08:41;2.90;;;1.47;;
819;SDS011;392;48.838;2.322;2023-03-14T00:11:10;5.23;;;1.97;;
819;SDS011;392;48.838;2.322;2023-03-14T00:13:39;6.27;;;1.90;;
819;SDS011;392;48.838;2.322;2023-03-14T00:16:08;1.90;;;1.17;;
819;SDS011;392;48.838;2.322;2023-03-14T00:18:37;4.23;;;1.67;;
819;SDS011;392;48.838;2.322;2023-03-14T00:21:06;2.63;;;1.20;;
819;SDS011;392;48.838;2.322;2023-03-14T00:23:37;1.50;;;1.40;;
819;SDS011;392;48.838;2.322;2023-03-14T00:26:07;4.30;;;1.33;;
819;SDS011;392;48.838;2.322;2023-03-14T00:28:36;2.30;;;1.20;;
819;SDS011;392;48.838;2.322;2023-03-14T00:31:05;2.17;;;1.17;;
819;SDS011;392;48.838;2.322;2023-03-14T00:33:35;2.43;;;1.57;;
819;SDS011;392;48.838;2.322;2023-03-14T00:36:03;2.70;;;1.03;;
819;SDS011;392;48.838;2.322;2023-03-14T00:38:34;3.50;;;1.20;;
819;SDS011;392;48.838;2.322;2023-03-14T00:41:04;3.03;;;1.60;;
819;SDS011;392;48.838;2.322;2023-03-14T00:43:32;1.53;;;1.20;;
819;SDS011;392;48.838;2.322;2023-03-14T00:46:00;3.70;;;1.40;;
819;SDS011;392;48.838;2.322;2023-03-14T00:48:28;4.87;;;1.60;;
819;SDS011;392;48.838;2.322;2023-03-14T00:50:56;5.20;;;1.60;;
819;SDS011;392;48.838;2.322;2023-03-14T00:53:23;3.47;;;1.00;;
819;SDS011;392;48.838;2.322;2023-03-14T00:55:52;2.40;;;1.73;;
819;SDS011;392;48.838;2.322;2023-03-14T00:58:19;1.57;;;1.30;;
819;SDS011;392;48.838;2.322;2023-03-14T01:00:47;2.60;;;2.00;;
819;SDS011;392;48.838;2.322;2023-03-14T01:03:14;2.03;;;1.07;;
819;SDS011;392;48.838;2.322;2023-03-14T01:05:42;3.70;;;2.23;;
819;SDS011;392;48.838;2.322;2023-03-14T01:08:09;4.57;;;2.10;;
819;SDS011;392;48.838;2.322;2023-03-14T01:10:38;5.17;;;1.90;;
819;SDS011;392;48.838;2.322;2023-03-14T01:13:08;6.70;;;1.67;;
819;SDS011;392;48.838;2.322;2023-03-14T01:15:36;4.60;;;2.00;;
819;SDS011;392;48.838;2.322;2023-03-14T01:18:04;5.23;;;1.83;;
819;SDS011;392;48.838;2.322;2023-03-14T01:20:31;5.50;;;2.40;;
819;SDS011;392;48.838;2.322;2023-03-14T01:22:59;8.20;;;1.80;;
819;SDS011;392;48.838;2.322;2023-03-14T01:25:26;3.93;;;1.87;;
819;SDS011;392;48.838;2.322;2023-03-14T01:27:54;3.43;;;1.70;;
819;SDS011;392;48.838;2.322;2023-03-14T01:30:22;4.70;;;3.13;;
819;SDS011;392;48.838;2.322;2023-03-14T01:32:50;4.43;;;1.80;;
819;SDS011;392;48.838;2.322;2023-03-14T01:35:17;4.53;;;1.50;;
819;SDS011;392;48.838;2.322;2023-03-14T01:37:45;3.23;;;1.77;;
819;SDS011;392;48.838;2.322;2023-03-14T01:40:18;2.90;;;1.73;;
819;SDS011;392;48.838;2.322;2023-03-14T01:42:46;4.87;;;1.40;;
819;SDS011;392;48.838;2.322;2023-03-14T01:48:43;4.37;;;2.13;;
819;SDS011;392;48.838;2.322;2023-03-14T01:51:16;4.70;;;1.67;;
819;SDS011;392;48.838;2.322;2023-03-14T01:53:48;4.17;;;1.50;;
819;SDS011;392;48.838;2.322;2023-03-14T01:56:17;5.00;;;1.67;;
819;SDS011;392;48.838;2.322;2023-03-14T01:58:47;3.50;;;1.73;;
819;SDS011;392;48.838;2.322;2023-03-14T02:01:20;2.37;;;1.20;;
819;SDS011;392;48.838;2.322;2023-03-14T02:03:52;3.87;;;1.50;;
819;SDS011;392;48.838;2.322;2023-03-14T02:06:24;2.30;;;1.27;;
819;SDS011;392;48.838;2.322;2023-03-14T02:08:59;1.77;;;0.90;;
819;SDS011;392;48.838;2.322;2023-03-14T02:11:31;2.30;;;1.30;;
819;SDS011;392;48.838;2.322;2023-03-14T02:14:03;1.90;;;0.90;;
819;SDS011;392;48.838;2.322;2023-03-14T02:16:50;2.00;;;1.10;;
819;SDS011;392;48.838;2.322;2023-03-14T02:19:50;1.93;;;1.13;;
819;SDS011;392;48.838;2.322;2023-03-14T02:22:41;1.27;;;0.90;;
819;SDS011;392;48.838;2.322;2023-03-14T02:25:12;1.53;;;1.10;;
819;SDS011;392;48.838;2.322;2023-03-14T02:27:45;1.70;;;1.00;;
819;SDS011;392;48.838;2.322;2023-03-14T02:30:15;2.13;;;0.97;;
819;SDS011;392;48.838;2.322;2023-03-14T02:32:48;1.13;;;0.80;;
819;SDS011;392;48.838;2.322;2023-03-14T02:35:21;4.33;;;1.90;;
819;SDS011;392;48.838;2.322;2023-03-14T02:37:52;2.50;;;0.80;;
819;SDS011;392;48.838;2.322;2023-03-14T02:40:28;0.97;;;0.80;;
819;SDS011;392;48.838;2.322;2023-03-14T02:42:57;1.37;;;0.87;;
819;SDS011;392;48.838;2.322;2023-03-14T02:45:36;1.93;;;1.10;;
819;SDS011;392;48.838;2.322;2023-03-14T02:48:12;2.10;;;0.90;;
819;SDS011;392;48.838;2.322;2023-03-14T02:50:43;1.70;;;0.90;;
819;SDS011;392;48.838;2.322;2023-03-14T02:53:14;0.80;;;0.80;;
819;SDS011;392;48.838;2.322;2023-03-14T02:55:46;1.50;;;0.80;;
819;SDS011;392;48.838;2.322;2023-03-14T02:58:17;1.40;;;0.73;;
819;SDS011;392;48.838;2.322;2023-03-14T03:00:50;0.83;;;0.83;;
819;SDS011;392;48.838;2.322;2023-03-14T03:03:17;1.83;;;0.80;;
819;SDS011;392;48.838;2.322;2023-03-14T03:05:47;0.63;;;0.63;;
819;SDS011;392;48.838;2.322;2023-03-14T03:08:17;1.03;;;0.90;;
819;SDS011;392;48.838;2.322;2023-03-14T03:10:46;1.40;;;1.00;;
819;SDS011;392;48.838;2.322;2023-03-14T03:13:13;2.00;;;0.80;;
819;SDS011;392;48.838;2.322;2023-03-14T03:15:43;0.70;;;0.70;;
819;SDS011;392;48.838;2.322;2023-03-14T03:18:11;1.63;;;0.70;;
819;SDS011;392;48.838;2.322;2023-03-14T03:20:41;0.60;;;0.60;;
819;SDS011;392;48.838;2.322;2023-03-14T03:23:08;2.07;;;0.87;;
819;SDS011;392;48.838;2.322;2023-03-14T03:25:37;1.10;;;1.10;;
819;SDS011;392;48.838;2.322;2023-03-14T03:28:05;1.97;;;0.90;;
819;SDS011;392;48.838;2.322;2023-03-14T03:30:37;1.63;;;0.90;;
819;SDS011;392;48.838;2.322;2023-03-14T03:33:06;0.80;;;0.67;;
819;SDS011;392;48.838;2.322;2023-03-14T03:35:34;0.70;;;0.70;;
819;SDS011;392;48.838;2.322;2023-03-14T03:38:02;0.80;;;0.60;;
819;SDS011;392;48.838;2.322;2023-03-14T03:40:30;1.57;;;0.60;;
819;SDS011;392;48.838;2.322;2023-03-14T03:42:58;0.80;;;0.80;;
819;SDS011;392;48.838;2.322;2023-03-14T03:45:26;2.40;;;0.73;;
819;SDS011;392;48.838;2.322;2023-03-14T03:47:55;0.80;;;0.60;;
819;SDS011;392;48.838;2.322;2023-03-14T03:50:23;0.60;;;0.60;;
819;SDS011;392;48.838;2.322;2023-03-14T03:52:51;1.00;;;0.63;;
819;SDS011;392;48.838;2.322;2023-03-14T03:55:18;0.87;;;0.87;;
819;SDS011;392;48.838;2.322;2023-03-14T03:57:46;1.00;;;0.80;;
819;SDS011;392;48.838;2.322;2023-03-14T04:00:13;1.03;;;0.67;;
819;SDS011;392;48.838;2.322;2023-03-14T04:02:41;0.80;;;0.80;;
819;SDS011;392;48.838;2.322;2023-03-14T04:05:12;1.43;;;0.70;;
819;SDS011;392;48.838;2.322;2023-03-14T04:07:47;1.47;;;1.37;;
819;SDS011;392;48.838;2.322;2023-03-14T04:10:20;0.97;;;0.50;;
819;SDS011;392;48.838;2.322;2023-03-14T04:13:08;0.87;;;0.60;;
819;SDS011;392;48.838;2.322;2023-03-14T04:15:38;0.70;;;0.70;;
819;SDS011;392;48.838;2.322;2023-03-14T04:18:14;0.60;;;0.60;;
819;SDS011;392;48.838;2.322;2023-03-14T04:20:42;0.97;;;0.53;;
819;SDS011;392;48.838;2.322;2023-03-14T04:23:12;0.70;;;0.70;;
819;SDS011;392;48.838;2.322;2023-03-14T04:25:39;0.60;;;0.57;;
819;SDS011;392;48.838;2.322;2023-03-14T04:28:07;0.77;;;0.70;;
819;SDS011;392;48.838;2.322;2023-03-14T04:30:35;0.93;;;0.60;;
819;SDS011;392;48.838;2.322;2023-03-14T04:33:12;0.90;;;0.63;;
819;SDS011;392;48.838;2.322;2023-03-14T04:35:46;0.50;;;0.50;;
819;SDS011;392;48.838;2.322;2023-03-14T04:38:17;0.53;;;0.53;;
819;SDS011;392;48.838;2.322;2023-03-14T04:40:46;0.70;;;0.70;;
819;SDS011;392;48.838;2.322;2023-03-14T04:43:15;0.60;;;0.40;;
819;SDS011;392;48.838;2.322;2023-03-14T04:45:49;0.50;;;0.40;;
819;SDS011;392;48.838;2.322;2023-03-14T04:48:18;0.60;;;0.40;;
819;SDS011;392;48.838;2.322;2023-03-14T04:50:45;0.57;;;0.43;;
819;SDS011;392;48.838;2.322;2023-03-14T04:53:13;0.70;;;0.70;;
819;SDS011;392;48.838;2.322;2023-03-14T04:55:48;0.80;;;0.80;;
819;SDS011;392;48.838;2.322;2023-03-14T04:58:16;0.80;;;0.70;;
819;SDS011;392;48.838;2.322;2023-03-14T05:00:45;1.07;;;0.90;;
819;SDS011;392;48.838;2.322;2023-03-14T05:03:31;2.30;;;1.63;;
819;SDS011;392;48.838;2.322;2023-03-14T05:06:18;2.00;;;1.17;;
819;SDS011;392;48.838;2.322;2023-03-14T05:09:00;2.30;;;1.10;;
819;SDS011;392;48.838;2.322;2023-03-14T05:11:45;2.23;;;1.70;;
819;SDS011;392;48.838;2.322;2023-03-14T05:14:31;2.93;;;2.63;;
819;SDS011;392;48.838;2.322;2023-03-14T05:17:17;3.47;;;2.00;;
819;SDS011;392;48.838;2.322;2023-03-14T05:20:08;5.50;;;2.33;;
819;SDS011;392;48.838;2.322;2023-03-14T05:23:10;2.90;;;2.37;;
819;SDS011;392;48.838;2.322;2023-03-14T05:25:49;3.73;;;2.30;;
819;SDS011;392;48.838;2.322;2023-03-14T05:28:44;5.27;;;2.83;;
819;SDS011;392;48.838;2.322;2023-03-14T05:31:26;4.53;;;3.10;;
819;SDS011;392;48.838;2.322;2023-03-14T05:34:06;4.17;;;2.63;;
819;SDS011;392;48.838;2.322;2023-03-14T05:36:57;4.57;;;2.20;;
819;SDS011;392;48.838;2.322;2023-03-14T05:39:40;4.50;;;2.30;;
819;SDS011;392;48.838;2.322;2023-03-14T05:42:30;7.33;;;2.87;;
819;SDS011;392;48.838;2.322;2023-03-14T05:45:26;4.47;;;2.60;;
819;SDS011;392;48.838;2.322;2023-03-14T05:48:24;6.27;;;2.80;;
819;SDS011;392;48.838;2.322;2023-03-14T05:51:10;4.17;;;2.97;;
819;SDS011;392;48.838;2.322;2023-03-14T05:53:57;5.70;;;2.90;;
819;SDS011;392;48.838;2.322;2023-03-14T05:56:43;5.23;;;3.10;;
819;SDS011;392;48.838;2.322;2023-03-14T05:59:46;6.40;;;3.00;;
819;SDS011;392;48.838;2.322;2023-03-14T06:02:34;4.17;;;2.33;;
819;SDS011;392;48.838;2.322;2023-03-14T06:05:11;4.40;;;2.90;;
819;SDS011;392;48.838;2.322;2023-03-14T06:07:39;5.13;;;2.57;;
819;SDS011;392;48.838;2.322;2023-03-14T06:10:06;4.37;;;2.63;;
819;SDS011;392;48.838;2.322;2023-03-14T06:12:36;7.00;;;2.77;;
819;SDS011;392;48.838;2.322;2023-03-14T06:15:04;5.57;;;2.77;;
819;SDS011;392;48.838;2.322;2023-03-14T06:17:34;5.50;;;3.07;;
819;SDS011;392;48.838;2.322;2023-03-14T06:20:07;7.70;;;3.17;;
819;SDS011;392;48.838;2.322;2023-03-14T06:22:37;3.63;;;2.93;;
819;SDS011;392;48.838;2.322;2023-03-14T06:25:06;4.00;;;2.70;;
819;SDS011;392;48.838;2.322;2023-03-14T06:27:35;4.90;;;3.23;;
819;SDS011;392;48.838;2.322;2023-03-14T06:30:03;6.40;;;3.03;;
819;SDS011;392;48.838;2.322;2023-03-14T06:32:32;4.27;;;2.97;;
819;SDS011;392;48.838;2.322;2023-03-14T06:35:05;4.47;;;2.53;;
819;SDS011;392;48.838;2.322;2023-03-14T06:37:37;4.57;;;2.90;;
819;SDS011;392;48.838;2.322;2023-03-14T06:40:05;6.60;;;3.60;;
819;SDS011;392;48.838;2.322;2023-03-14T06:42:52;5.67;;;2.90;;
819;SDS011;392;48.838;2.322;2023-03-14T06:45:21;5.13;;;2.97;;
819;SDS011;392;48.838;2.322;2023-03-14T06:47:52;5.13;;;2.90;;
819;SDS011;392;48.838;2.322;2023-03-14T06:50:24;6.47;;;3.80;;
819;SDS011;392;48.838;2.322;2023-03-14T06:52:52;6.97;;;3.47;;
819;SDS011;392;48.838;2.322;2023-03-14T06:55:23;5.47;;;2.70;;
819;SDS011;392;48.838;2.322;2023-03-14T06:57:52;6.77;;;3.43;;
819;SDS011;392;48.838;2.322;2023-03-14T07:00:20;5.20;;;3.10;;
819;SDS011;392;48.838;2.322;2023-03-14T07:02:53;7.83;;;3.70;;
819;SDS011;392;48.838;2.322;2023-03-14T07:05:28;5.67;;;2.67;;
819;SDS011;392;48.838;2.322;2023-03-14T07:07:55;5.00;;;3.00;;
819;SDS011;392;48.838;2.322;2023-03-14T07:10:23;6.40;;;3.30;;
819;SDS011;392;48.838;2.322;2023-03-14T07:12:51;6.40;;;2.77;;
819;SDS011;392;48.838;2.322;2023-03-14T07:15:20;7.50;;;3.43;;
819;SDS011;392;48.838;2.322;2023-03-14T07:17:51;4.63;;;2.63;;
819;SDS011;392;48.838;2.322;2023-03-14T07:20:22;4.37;;;2.50;;
819;SDS011;392;48.838;2.322;2023-03-14T07:22:50;8.43;;;2.87;;
819;SDS011;392;48.838;2.322;2023-03-14T07:25:25;8.13;;;2.93;;
819;SDS011;392;48.838;2.322;2023-03-14T07:27:53;5.00;;;3.50;;
819;SDS011;392;48.838;2.322;2023-03-14T07:30:21;2.93;;;2.60;;
819;SDS011;392;48.838;2.322;2023-03-14T07:32:49;6.73;;;2.40;;
819;SDS011;392;48.838;2.322;2023-03-14T07:35:18;5.20;;;2.47;;
819;SDS011;392;48.838;2.322;2023-03-14T07:37:46;6.67;;;2.40;;
819;SDS011;392;48.838;2.322;2023-03-14T07:40:14;4.20;;;2.77;;
819;SDS011;392;48.838;2.322;2023-03-14T07:42:41;4.43;;;2.20;;
819;SDS011;392;48.838;2.322;2023-03-14T07:45:24;3.90;;;2.20;;
819;SDS011;392;48.838;2.322;2023-03-14T07:47:51;6.27;;;2.50;;
819;SDS011;392;48.838;2.322;2023-03-14T07:50:24;5.57;;;3.20;;
819;SDS011;392;48.838;2.322;2023-03-14T07:52:51;7.57;;;2.30;;
819;SDS011;392;48.838;2.322;2023-03-14T07:55:18;5.80;;;1.90;;
819;SDS011;392;48.838;2.322;2023-03-14T07:57:45;12.77;;;3.30;;
819;SDS011;392;48.838;2.322;2023-03-14T08:00:13;4.77;;;2.30;;
819;SDS011;392;48.838;2.322;2023-03-14T08:02:41;4.83;;;2.10;;
819;SDS011;392;48.838;2.322;2023-03-14T08:05:09;4.80;;;2.13;;
819;SDS011;392;48.838;2.322;2023-03-14T08:07:38;7.20;;;2.73;;
819;SDS011;392;48.838;2.322;2023-03-14T08:10:06;5.07;;;2.47;;
819;SDS011;392;48.838;2.322;2023-03-14T08:12:35;6.47;;;2.43;;
819;SDS011;392;48.838;2.322;2023-03-14T08:15:02;6.17;;;2.37;;
819;SDS011;392;48.838;2.322;2023-03-14T08:17:31;6.40;;;2.37;;
819;SDS011;392;48.838;2.322;2023-03-14T08:19:58;4.70;;;2.60;;
819;SDS011;392;48.838;2.322;2023-03-14T08:22:26;7.60;;;2.83;;
819;SDS011;392;48.838;2.322;2023-03-14T08:24:54;4.90;;;2.70;;
819;SDS011;392;48.838;2.322;2023-03-14T08:27:21;4.13;;;2.47;;
819;SDS011;392;48.838;2.322;2023-03-14T08:29:49;40.03;;;30.73;;
819;SDS011;392;48.838;2.322;2023-03-14T08:32:16;37.23;;;25.47;;
819;SDS011;392;48.838;2.322;2023-03-14T08:34:45;17.30;;;10.53;;
819;SDS011;392;48.838;2.322;2023-03-14T08:37:13;11.43;;;6.27;;
819;SDS011;392;48.838;2.322;2023-03-14T08:39:40;8.50;;;2.60;;
819;SDS011;392;48.838;2.322;2023-03-14T08:42:08;4.80;;;2.60;;
819;SDS011;392;48.838;2.322;2023-03-14T08:44:36;4.93;;;2.17;;
819;SDS011;392;48.838;2.322;2023-03-14T08:47:03;3.63;;;2.30;;
819;SDS011;392;48.838;2.322;2023-03-14T08:49:31;3.23;;;2.47;;
819;SDS011;392;48.838;2.322;2023-03-14T08:51:58;4.27;;;2.80;;
819;SDS011;392;48.838;2.322;2023-03-14T08:54:27;3.53;;;2.80;;
819;SDS011;392;48.838;2.322;2023-03-14T08:56:55;6.63;;;2.70;;
819;SDS011;392;48.838;2.322;2023-03-14T08:59:24;5.27;;;2.67;;
819;SDS011;392;48.838;2.322;2023-03-14T09:01:51;5.97;;;2.10;;
819;SDS011;392;48.838;2.322;2023-03-14T09:04:19;4.97;;;2.23;;
819;SDS011;392;48.838;2.322;2023-03-14T09:06:47;7.00;;;2.20;;
819;SDS011;392;48.838;2.322;2023-03-14T09:09:14;6.73;;;3.17;;
819;SDS011;392;48.838;2.322;2023-03-14T09:11:42;4.53;;;2.23;;
819;SDS011;392;48.838;2.322;2023-03-14T09:14:10;3.93;;;2.00;;
819;SDS011;392;48.838;2.322;2023-03-14T09:16:38;3.70;;;2.00;;
819;SDS011;392;48.838;2.322;2023-03-14T09:19:06;4.20;;;3.17;;
819;SDS011;392;48.838;2.322;2023-03-14T09:21:33;3.80;;;3.27;;
819;SDS011;392;48.838;2.322;2023-03-14T09:24:00;7.80;;;3.33;;
819;SDS011;392;48.838;2.322;2023-03-14T09:26:28;4.03;;;2.60;;
819;SDS011;392;48.838;2.322;2023-03-14T09:28:55;2.00;;;1.90;;
819;SDS011;392;48.838;2.322;2023-03-14T09:31:23;5.50;;;2.33;;
819;SDS011;392;48.838;2.322;2023-03-14T09:33:51;5.47;;;2.23;;
819;SDS011;392;48.838;2.322;2023-03-14T09:36:19;3.23;;;1.73;;
819;SDS011;392;48.838;2.322;2023-03-14T09:38:46;2.50;;;1.83;;
819;SDS011;392;48.838;2.322;2023-03-14T09:41:14;2.67;;;1.60;;
819;SDS011;392;48.838;2.322;2023-03-14T09:43:46;2.30;;;1.57;;
819;SDS011;392;48.838;2.322;2023-03-14T09:46:16;1.80;;;1.27;;
819;SDS011;392;48.838;2.322;2023-03-14T09:48:44;2.53;;;1.27;;
819;SDS011;392;48.838;2.322;2023-03-14T09:51:14;2.70;;;2.10;;
819;SDS011;392;48.838;2.322;2023-03-14T09:53:45;2.67;;;2.07;;
819;SDS011;392;48.838;2.322;2023-03-14T09:56:14;3.63;;;1.90;;
819;SDS011;392;48.838;2.322;2023-03-14T09:58:47;2.57;;;1.90;;
819;SDS011;392;48.838;2.322;2023-03-14T10:01:19;3.07;;;1.90;;
819;SDS011;392;48.838;2.322;2023-03-14T10:03:53;2.70;;;1.73;;
819;SDS011;392;48.838;2.322;2023-03-14T10:06:25;2.00;;;1.00;;
819;SDS011;392;48.838;2.322;2023-03-14T10:08:54;1.30;;;1.20;;
819;SDS011;392;48.838;2.322;2023-03-14T10:11:23;1.57;;;1.20;;
819;SDS011;392;48.838;2.322;2023-03-14T10:14:02;3.07;;;1.40;;
819;SDS011;392;48.838;2.322;2023-03-14T10:16:33;2.03;;;1.30;;
819;SDS011;392;48.838;2.322;2023-03-14T10:19:02;2.90;;;1.47;;
819;SDS011;392;48.838;2.322;2023-03-14T10:21:36;2.90;;;1.07;;
819;SDS011;392;48.838;2.322;2023-03-14T10:24:10;2.93;;;1.37;;
819;SDS011;392;48.838;2.322;2023-03-14T10:26:47;1.77;;;1.47;;
819;SDS011;392;48.838;2.322;2023-03-14T10:29:16;1.40;;;1.30;;
819;SDS011;392;48.838;2.322;2023-03-14T10:31:48;2.23;;;1.40;;
819;SDS011;392;48.838;2.322;2023-03-14T10:34:21;1.97;;;1.20;;
819;SDS011;392;48.838;2.322;2023-03-14T10:36:53;2.50;;;1.30;;
819;SDS011;392;48.838;2.322;2023-03-14T10:39:27;3.27;;;1.90;;
819;SDS011;392;48.838;2.322;2023-03-14T10:42:05;4.20;;;2.47;;
819;SDS011;392;48.838;2.322;2023-03-14T10:44:41;2.60;;;1.70;;
819;SDS011;392;48.838;2.322;2023-03-14T10:47:18;3.67;;;1.60;;
819;SDS011;392;48.838;2.322;2023-03-14T10:49:49;6.17;;;2.10;;
819;SDS011;392;48.838;2.322;2023-03-14T10:52:20;3.50;;;1.90;;
819;SDS011;392;48.838;2.322;2023-03-14T10:54:54;2.90;;;1.30;;
819;SDS011;392;48.838;2.322;2023-03-14T10:57:25;2.17;;;1.00;;
819;SDS011;392;48.838;2.322;2023-03-14T10:59:53;2.80;;;1.40;;
819;SDS011;392;48.838;2.322;2023-03-14T11:02:32;4.97;;;1.40;;
819;SDS011;392;48.838;2.322;2023-03-14T11:05:18;1.57;;;1.47;;
819;SDS011;392;48.838;2.322;2023-03-14T11:07:58;1.30;;;1.20;;
819;SDS011;392;48.838;2.322;2023-03-14T11:10:31;3.10;;;1.60;;
819;SDS011;392;48.838;2.322;2023-03-14T11:13:01;2.27;;;1.30;;
819;SDS011;392;48.838;2.322;2023-03-14T11:15:40;2.90;;;1.50;;
819;SDS011;392;48.838;2.322;2023-03-14T11:21:13;1.73;;;1.33;;
819;SDS011;392;48.838;2.322;2023-03-14T11:23:50;1.30;;;1.10;;
819;SDS011;392;48.838;2.322;2023-03-14T11:26:33;1.40;;;1.30;;
819;SDS011;392;48.838;2.322;2023-03-14T11:29:12;5.40;;;4.10;;
819;SDS011;392;48.838;2.322;2023-03-14T11:31:47;3.43;;;1.63;;
819;SDS011;392;48.838;2.322;2023-03-14T11:34:15;3.30;;;2.20;;
819;SDS011;392;48.838;2.322;2023-03-14T11:36:49;3.37;;;1.90;;
819;SDS011;392;48.838;2.322;2023-03-14T11:39:21;2.37;;;1.73;;
819;SDS011;392;48.838;2.322;2023-03-14T11:41:51;4.17;;;1.63;;
819;SDS011;392;48.838;2.322;2023-03-14T11:44:22;1.60;;;1.30;;
819;SDS011;392;48.838;2.322;2023-03-14T11:46:52;1.53;;;1.00;;
819;SDS011;392;48.838;2.322;2023-03-14T11:49:30;1.30;;;1.30;;
819;SDS011;392;48.838;2.322;2023-03-14T11:52:05;1.67;;;1.47;;
819;SDS011;392;48.838;2.322;2023-03-14T11:54:41;1.60;;;1.50;;
819;SDS011;392;48.838;2.322;2023-03-14T11:57:17;1.50;;;1.40;;
819;SDS011;392;48.838;2.322;2023-03-14T11:59:48;1.67;;;1.50;;
819;SDS011;392;48.838;2.322;2023-03-14T12:02:21;1.40;;;1.10;;
819;SDS011;392;48.838;2.322;2023-03-14T12:11:15;1.40;;;1.30;;
819;SDS011;392;48.838;2.322;2023-03-14T12:13:48;1.80;;;1.60;;
819;SDS011;392;48.838;2.322;2023-03-14T12:19:13;1.73;;;1.30;;
819;SDS011;392;48.838;2.322;2023-03-14T12:21:58;4.27;;;3.63;;
819;SDS011;392;48.838;2.322;2023-03-14T12:24:34;1.83;;;1.30;;
819;SDS011;392;48.838;2.322;2023-03-14T12:27:05;1.90;;;1.30;;
819;SDS011;392;48.838;2.322;2023-03-14T12:32:26;1.90;;;1.50;;
819;SDS011;392;48.838;2.322;2023-03-14T12:34:54;2.30;;;1.03;;
819;SDS011;392;48.838;2.322;2023-03-14T12:37:26;1.63;;;1.20;;
819;SDS011;392;48.838;2.322;2023-03-14T12:40:06;1.97;;;1.77;;
819;SDS011;392;48.838;2.322;2023-03-14T12:42:54;2.03;;;1.50;;
819;SDS011;392;48.838;2.322;2023-03-14T12:45:28;1.90;;;1.13;;
819;SDS011;392;48.838;2.322;2023-03-14T12:48:00;2.83;;;1.80;;
819;SDS011;392;48.838;2.322;2023-03-14T12:50:36;1.30;;;1.20;;
819;SDS011;392;48.838;2.322;2023-03-14T12:56:27;1.77;;;1.67;;
819;SDS011;392;48.838;2.322;2023-03-14T12:59:12;6.53;;;1.53;;
819;SDS011;392;48.838;2.322;2023-03-14T13:02:02;3.07;;;1.33;;
819;SDS011;392;48.838;2.322;2023-03-14T13:04:46;2.13;;;1.17;;
819;SDS011;392;48.838;2.322;2023-03-14T13:07:29;1.20;;;1.10;;
819;SDS011;392;48.838;2.322;2023-03-14T13:10:01;2.83;;;1.03;;
819;SDS011;392;48.838;2.322;2023-03-14T13:12:43;2.87;;;1.27;;
819;SDS011;392;48.838;2.322;2023-03-14T13:15:21;1.27;;;0.97;;
819;SDS011;392;48.838;2.322;2023-03-14T13:17:59;2.97;;;1.43;;
819;SDS011;392;48.838;2.322;2023-03-14T13:20:30;1.70;;;1.60;;
819;SDS011;392;48.838;2.322;2023-03-14T13:23:01;2.57;;;1.17;;
819;SDS011;392;48.838;2.322;2023-03-14T13:25:29;1.10;;;1.00;;
819;SDS011;392;48.838;2.322;2023-03-14T13:27:59;2.20;;;1.20;;
819;SDS011;392;48.838;2.322;2023-03-14T13:30:35;2.57;;;1.00;;
819;SDS011;392;48.838;2.322;2023-03-14T13:33:10;2.50;;;1.93;;
819;SDS011;392;48.838;2.322;2023-03-14T13:35:41;1.60;;;1.27;;
819;SDS011;392;48.838;2.322;2023-03-14T13:38:15;2.97;;;1.53;;
819;SDS011;392;48.838;2.322;2023-03-14T13:40:46;1.40;;;1.30;;
819;SDS011;392;48.838;2.322;2023-03-14T13:43:15;8.03;;;3.37;;
819;SDS011;392;48.838;2.322;2023-03-14T13:45:50;2.33;;;1.40;;
819;SDS011;392;48.838;2.322;2023-03-14T13:48:21;1.30;;;0.80;;
819;SDS011;392;48.838;2.322;2023-03-14T13:50:54;3.27;;;1.17;;
819;SDS011;392;48.838;2.322;2023-03-14T13:53:26;1.23;;;0.90;;
819;SDS011;392;48.838;2.322;2023-03-14T13:55:53;1.73;;;1.07;;
819;SDS011;392;48.838;2.322;2023-03-14T13:58:27;1.00;;;0.93;;
819;SDS011;392;48.838;2.322;2023-03-14T14:01:01;1.10;;;1.10;;
819;SDS011;392;48.838;2.322;2023-03-14T14:03:32;1.27;;;1.10;;
819;SDS011;392;48.838;2.322;2023-03-14T14:06:03;3.83;;;1.10;;
819;SDS011;392;48.838;2.322;2023-03-14T14:08:39;1.23;;;1.13;;
819;SDS011;392;48.838;2.322;2023-03-14T14:11:08;1.13;;;0.90;;
819;SDS011;392;48.838;2.322;2023-03-14T14:13:47;1.43;;;1.00;;
819;SDS011;392;48.838;2.322;2023-03-14T14:16:17;3.87;;;1.40;;
819;SDS011;392;48.838;2.322;2023-03-14T14:18:51;1.40;;;0.90;;
819;SDS011;392;48.838;2.322;2023-03-14T14:21:20;1.90;;;0.73;;
819;SDS011;392;48.838;2.322;2023-03-14T14:23:48;1.07;;;0.70;;
819;SDS011;392;48.838;2.322;2023-03-14T14:26:16;3.23;;;0.90;;
819;SDS011;392;48.838;2.322;2023-03-14T14:28:45;1.13;;;1.03;;
819;SDS011;392;48.838;2.322;2023-03-14T14:31:20;1.63;;;1.37;;
819;SDS011;392;48.838;2.322;2023-03-14T14:33:54;1.13;;;0.80;;
819;SDS011;392;48.838;2.322;2023-03-14T14:36:24;0.73;;;0.70;;
819;SDS011;392;48.838;2.322;2023-03-14T14:38:57;1.20;;;1.00;;
819;SDS011;392;48.838;2.322;2023-03-14T14:41:27;1.40;;;0.93;;
819;SDS011;392;48.838;2.322;2023-03-14T14:44:01;1.53;;;0.90;;
819;SDS011;392;48.838;2.322;2023-03-14T14:46:33;1.87;;;1.00;;
819;SDS011;392;48.838;2.322;2023-03-14T14:49:03;2.03;;;0.90;;
819;SDS011;392;48.838;2.322;2023-03-14T14:51:38;1.67;;;0.90;;
819;SDS011;392;48.838;2.322;2023-03-14T14:54:10;1.90;;;1.00;;
819;SDS011;392;48.838;2.322;2023-03-14T14:56:44;2.13;;;0.73;;
819;SDS011;392;48.838;2.322;2023-03-14T14:59:20;2.67;;;0.70;;
819;SDS011;392;48.838;2.322;2023-03-14T15:01:56;1.33;;;0.90;;
819;SDS011;392;48.838;2.322;2023-03-14T15:04:25;1.27;;;0.97;;
819;SDS011;392;48.838;2.322;2023-03-14T15:06:53;2.20;;;1.20;;
819;SDS011;392;48.838;2.322;2023-03-14T15:09:20;2.50;;;1.10;;
819;SDS011;392;48.838;2.322;2023-03-14T15:11:48;0.83;;;0.83;;
819;SDS011;392;48.838;2.322;2023-03-14T15:14:16;1.17;;;0.90;;
819;SDS011;392;48.838;2.322;2023-03-14T15:16:43;2.10;;;1.40;;
819;SDS011;392;48.838;2.322;2023-03-14T15:19:14;1.00;;;0.90;;
819;SDS011;392;48.838;2.322;2023-03-14T15:21:47;1.43;;;1.00;;
819;SDS011;392;48.838;2.322;2023-03-14T15:24:15;1.30;;;1.20;;
819;SDS011;392;48.838;2.322;2023-03-14T15:26:43;2.13;;;1.27;;
819;SDS011;392;48.838;2.322;2023-03-14T15:29:10;1.70;;;1.30;;
819;SDS011;392;48.838;2.322;2023-03-14T15:31:39;1.70;;;1.27;;
819;SDS011;392;48.838;2.322;2023-03-14T15:34:08;1.50;;;1.40;;
819;SDS011;392;48.838;2.322;2023-03-14T15:36:38;3.30;;;1.67;;
819;SDS011;392;48.838;2.322;2023-03-14T15:39:06;2.67;;;2.57;;
819;SDS011;392;48.838;2.322;2023-03-14T15:41:33;3.70;;;2.30;;
819;SDS011;392;48.838;2.322;2023-03-14T15:44:01;2.30;;;1.37;;
819;SDS011;392;48.838;2.322;2023-03-14T15:46:28;2.53;;;1.33;;
819;SDS011;392;48.838;2.322;2023-03-14T15:48:55;2.77;;;2.60;;
819;SDS011;392;48.838;2.322;2023-03-14T15:51:23;4.07;;;3.67;;
819;SDS011;392;48.838;2.322;2023-03-14T15:53:52;1.97;;;1.30;;
819;SDS011;392;48.838;2.322;2023-03-14T15:56:19;4.00;;;3.30;;
819;SDS011;392;48.838;2.322;2023-03-14T15:58:50;2.60;;;2.20;;
819;SDS011;392;48.838;2.322;2023-03-14T16:01:17;7.93;;;4.50;;
819;SDS011;392;48.838;2.322;2023-03-14T16:03:45;1.30;;;1.20;;
819;SDS011;392;48.838;2.322;2023-03-14T16:06:14;2.80;;;1.80;;
819;SDS011;392;48.838;2.322;2023-03-14T16:08:41;4.03;;;2.67;;
819;SDS011;392;48.838;2.322;2023-03-14T16:11:11;5.27;;;3.77;;
819;SDS011;392;48.838;2.322;2023-03-14T16:13:42;2.23;;;1.80;;
819;SDS011;392;48.838;2.322;2023-03-14T16:16:10;2.97;;;2.40;;
819;SDS011;392;48.838;2.322;2023-03-14T16:18:38;4.63;;;2.50;;
819;SDS011;392;48.838;2.322;2023-03-14T16:21:06;2.90;;;2.27;;
819;SDS011;392;48.838;2.322;2023-03-14T16:23:37;2.47;;;1.80;;
819;SDS011;392;48.838;2.322;2023-03-14T16:26:05;2.23;;;2.10;;
819;SDS011;392;48.838;2.322;2023-03-14T16:28:37;2.87;;;1.50;;
819;SDS011;392;48.838;2.322;2023-03-14T16:31:05;1.50;;;1.40;;
819;SDS011;392;48.838;2.322;2023-03-14T16:33:35;2.20;;;1.60;;
819;SDS011;392;48.838;2.322;2023-03-14T16:36:04;2.40;;;2.10;;